createdAt,value
2017-10-31T00:00:50.953Z,9.1
2017-10-31T00:01:43.519Z,9.04
2017-10-31T00:04:09.491Z,9.1
2017-10-31T00:05:02.571Z,9.08
2017-10-31T00:05:56.484Z,9.12
2017-10-31T00:06:48.655Z,9.04
2017-10-31T00:07:42.172Z,9.08
2017-10-31T00:08:34.761Z,9.08
2017-10-31T00:09:29.271Z,9.03
2017-10-31T00:10:22.637Z,9.01
2017-10-31T00:11:15.051Z,9.08
2017-10-31T00:12:08.104Z,9.06
2017-10-31T00:13:01.061Z,9.1
2017-10-31T00:13:54.870Z,9.15
2017-10-31T00:14:47.855Z,9.23
2017-10-31T00:15:42.083Z,9.32
2017-10-31T00:16:34.535Z,9.34
2017-10-31T00:17:27.904Z,9.27
2017-10-31T00:18:21.129Z,9.31
2017-10-31T00:19:13.666Z,9.32
2017-10-31T00:20:06.586Z,9.27
2017-10-31T00:20:58.788Z,9.41
2017-10-31T00:21:51.470Z,9.49
2017-10-31T00:22:43.659Z,9.44
2017-10-31T00:23:35.818Z,9.41
2017-10-31T00:24:29.164Z,9.56
2017-10-31T00:25:21.418Z,9.53
2017-10-31T00:26:14.166Z,9.55
2017-10-31T00:27:06.577Z,9.5
2017-10-31T00:27:58.955Z,9.52
2017-10-31T00:28:51.217Z,9.62
2017-10-31T00:29:43.814Z,9.6
2017-10-31T00:30:28.496Z,9.7
2017-10-31T00:31:08.839Z,9.71
2017-10-31T00:31:50.010Z,9.7
2017-10-31T00:32:29.644Z,9.74
2017-10-31T00:33:10.125Z,9.75
2017-10-31T00:33:50.541Z,9.85
2017-10-31T00:34:30.883Z,9.83
2017-10-31T00:35:11.349Z,9.96
2017-10-31T00:35:51.793Z,9.96
2017-10-31T00:36:32.124Z,9.95
2017-10-31T00:37:12.488Z,9.92
2017-10-31T00:37:53.016Z,10.02
2017-10-31T00:38:33.413Z,9.95
2017-10-31T00:39:13.816Z,10.02
2017-10-31T00:39:54.282Z,10.02
2017-10-31T00:40:34.750Z,10.04
2017-10-31T00:41:15.132Z,9.95
2017-10-31T00:41:55.507Z,10.02
2017-10-31T00:42:35.946Z,10.02
2017-10-31T00:43:16.382Z,10.02
2017-10-31T00:43:56.779Z,9.99
2017-10-31T00:44:37.226Z,10.06
2017-10-31T00:45:17.639Z,10.04
2017-10-31T00:45:58.068Z,10.01
2017-10-31T00:46:38.613Z,10.07
2017-10-31T00:47:19.029Z,9.99
2017-10-31T00:47:59.508Z,9.99
2017-10-31T00:48:40.047Z,9.92
2017-10-31T00:49:20.360Z,9.95
2017-10-31T00:50:00.762Z,9.86
2017-10-31T00:50:41.243Z,9.83
2017-10-31T00:51:21.701Z,9.78
2017-10-31T00:52:02.188Z,9.78
2017-10-31T00:52:42.494Z,9.8
2017-10-31T00:53:22.905Z,9.8
2017-10-31T00:54:03.284Z,9.85
2017-10-31T00:54:43.673Z,9.85
2017-10-31T00:55:24.160Z,9.85
2017-10-31T00:56:04.712Z,9.91
2017-10-31T00:56:45.160Z,9.86
2017-10-31T00:57:25.599Z,9.8
2017-10-31T00:58:05.943Z,9.85
2017-10-31T00:58:46.431Z,9.78
2017-10-31T00:59:26.845Z,9.89
2017-10-31T01:00:07.283Z,9.91
2017-10-31T01:00:47.623Z,9.77
2017-10-31T01:01:28.024Z,9.75
2017-10-31T01:02:08.475Z,9.74
2017-10-31T01:02:48.831Z,9.77
2017-10-31T01:03:29.175Z,9.77
2017-10-31T01:04:09.663Z,9.73
2017-10-31T01:04:50.002Z,9.7
2017-10-31T01:05:30.400Z,9.73
2017-10-31T01:06:10.800Z,9.71
2017-10-31T01:06:51.318Z,9.68
2017-10-31T01:07:31.589Z,9.74
2017-10-31T01:08:12.145Z,9.7
2017-10-31T01:08:52.528Z,9.65
2017-10-31T01:09:33.000Z,9.6
2017-10-31T01:10:13.526Z,9.63
2017-10-31T01:10:53.929Z,9.62
2017-10-31T01:11:34.316Z,9.67
2017-10-31T01:12:14.729Z,9.68
2017-10-31T01:12:55.125Z,9.6
2017-10-31T01:13:35.589Z,9.63
2017-10-31T01:14:16.035Z,9.78
2017-10-31T01:14:56.377Z,9.74
2017-10-31T01:15:36.866Z,9.86
2017-10-31T01:16:17.206Z,9.83
2017-10-31T01:16:57.603Z,9.83
2017-10-31T01:17:38.066Z,9.92
2017-10-31T01:18:18.478Z,9.96
2017-10-31T01:18:58.931Z,9.99
2017-10-31T01:19:39.249Z,10.06
2017-10-31T01:20:19.930Z,9.99
2017-10-31T01:21:00.305Z,9.99
2017-10-31T01:21:40.609Z,10.06
2017-10-31T01:22:21.049Z,9.98
2017-10-31T01:23:01.436Z,9.99
2017-10-31T01:23:41.807Z,10.01
2017-10-31T01:24:22.263Z,10.02
2017-10-31T01:25:02.638Z,10.1
2017-10-31T01:25:43.029Z,10.11
2017-10-31T01:26:23.477Z,10.18
2017-10-31T01:27:03.883Z,10.14
2017-10-31T01:27:44.295Z,10.17
2017-10-31T01:28:24.780Z,10.24
2017-10-31T01:29:05.209Z,10.26
2017-10-31T01:29:45.727Z,10.25
2017-10-31T01:30:26.074Z,10.25
2017-10-31T01:31:06.518Z,10.28
2017-10-31T01:31:46.887Z,10.31
2017-10-31T01:32:27.269Z,10.22
2017-10-31T01:33:07.772Z,10.28
2017-10-31T01:33:48.107Z,10.26
2017-10-31T01:34:28.538Z,10.25
2017-10-31T01:35:08.990Z,10.25
2017-10-31T01:35:49.350Z,10.22
2017-10-31T01:36:29.786Z,10.25
2017-10-31T01:37:10.177Z,10.25
2017-10-31T01:37:50.489Z,10.35
2017-10-31T01:38:30.980Z,10.32
2017-10-31T01:39:11.393Z,10.28
2017-10-31T01:39:51.756Z,10.31
2017-10-31T01:40:32.377Z,10.26
2017-10-31T01:41:12.792Z,10.24
2017-10-31T01:41:53.222Z,10.26
2017-10-31T01:42:33.633Z,10.29
2017-10-31T01:43:14.037Z,10.29
2017-10-31T01:43:54.370Z,10.22
2017-10-31T01:44:34.820Z,10.24
2017-10-31T01:45:15.335Z,10.28
2017-10-31T01:45:55.826Z,10.22
2017-10-31T01:46:36.168Z,10.25
2017-10-31T01:47:16.618Z,10.26
2017-10-31T01:47:59.220Z,10.35
2017-10-31T01:48:39.702Z,10.34
2017-10-31T01:49:20.090Z,10.34
2017-10-31T01:50:00.382Z,10.32
2017-10-31T01:50:41.117Z,10.35
2017-10-31T01:51:26.547Z,10.42
2017-10-31T01:52:06.530Z,10.38
2017-10-31T01:52:46.960Z,10.46
2017-10-31T01:53:27.300Z,10.42
2017-10-31T01:54:07.691Z,10.44
2017-10-31T01:54:48.103Z,10.46
2017-10-31T01:55:28.553Z,10.35
2017-10-31T01:56:08.987Z,10.39
2017-10-31T01:56:49.324Z,10.42
2017-10-31T01:57:29.874Z,10.35
2017-10-31T01:58:10.266Z,10.44
2017-10-31T01:58:50.693Z,10.43
2017-10-31T01:59:31.120Z,10.46
2017-10-31T02:00:11.469Z,10.38
2017-10-31T02:00:51.865Z,10.49
2017-10-31T02:01:32.288Z,10.43
2017-10-31T02:02:12.874Z,10.49
2017-10-31T02:02:53.271Z,10.39
2017-10-31T02:03:33.722Z,10.42
2017-10-31T02:04:14.149Z,10.43
2017-10-31T02:04:54.511Z,10.47
2017-10-31T02:05:35.039Z,10.52
2017-10-31T02:06:15.583Z,10.43
2017-10-31T02:06:55.983Z,10.6
2017-10-31T02:07:36.281Z,10.46
2017-10-31T02:08:16.772Z,10.57
2017-10-31T02:08:57.203Z,10.57
2017-10-31T02:09:37.670Z,10.47
2017-10-31T02:10:18.143Z,10.55
2017-10-31T02:10:58.560Z,10.57
2017-10-31T02:11:38.951Z,10.52
2017-10-31T02:12:19.352Z,10.58
2017-10-31T02:12:59.779Z,10.54
2017-10-31T02:13:40.260Z,10.52
2017-10-31T02:14:20.642Z,10.55
2017-10-31T02:15:01.041Z,10.54
2017-10-31T02:15:41.406Z,10.47
2017-10-31T02:16:21.880Z,10.42
2017-10-31T02:17:02.361Z,10.42
2017-10-31T02:17:42.700Z,10.43
2017-10-31T02:18:23.149Z,10.47
2017-10-31T02:19:03.563Z,10.51
2017-10-31T02:19:43.979Z,10.62
2017-10-31T02:20:24.339Z,10.62
2017-10-31T02:21:05.534Z,10.57
2017-10-31T02:21:45.225Z,10.55
2017-10-31T02:22:25.604Z,10.52
2017-10-31T02:23:06.046Z,10.6
2017-10-31T02:23:46.539Z,10.63
2017-10-31T02:24:26.997Z,10.72
2017-10-31T02:25:07.525Z,10.73
2017-10-31T02:25:47.880Z,10.7
2017-10-31T02:26:28.186Z,10.63
2017-10-31T02:27:08.603Z,10.73
2017-10-31T02:27:49.076Z,10.73
2017-10-31T02:28:29.507Z,10.9
2017-10-31T02:29:09.921Z,10.86
2017-10-31T02:29:50.291Z,10.81
2017-10-31T02:30:30.676Z,10.93
2017-10-31T02:31:11.064Z,10.88
2017-10-31T02:31:51.460Z,10.87
2017-10-31T02:32:31.997Z,10.98
2017-10-31T02:33:12.423Z,10.95
2017-10-31T02:33:52.937Z,11.02
2017-10-31T02:34:33.329Z,10.99
2017-10-31T02:35:13.745Z,11.05
2017-10-31T02:35:54.262Z,11.06
2017-10-31T02:36:34.674Z,10.99
2017-10-31T02:37:15.104Z,11.01
2017-10-31T02:37:55.505Z,11.03
2017-10-31T02:38:35.855Z,10.88
2017-10-31T02:39:16.321Z,10.88
2017-10-31T02:39:56.640Z,10.93
2017-10-31T02:40:37.220Z,10.9
2017-10-31T02:41:17.600Z,10.88
2017-10-31T02:41:57.943Z,10.91
2017-10-31T02:42:38.340Z,10.95
2017-10-31T02:43:18.802Z,10.86
2017-10-31T02:43:59.109Z,10.87
2017-10-31T02:44:39.519Z,10.91
2017-10-31T02:45:20.014Z,10.98
2017-10-31T02:46:00.473Z,10.88
2017-10-31T02:46:40.911Z,10.88
2017-10-31T02:47:21.288Z,10.91
2017-10-31T02:48:01.652Z,10.88
2017-10-31T02:48:42.088Z,10.84
2017-10-31T02:49:22.460Z,10.91
2017-10-31T02:50:02.860Z,10.9
2017-10-31T02:50:43.346Z,10.94
2017-10-31T02:51:23.750Z,10.91
2017-10-31T02:52:04.179Z,10.88
2017-10-31T02:52:44.698Z,10.86
2017-10-31T02:53:25.071Z,10.88
2017-10-31T02:54:05.490Z,10.9
2017-10-31T02:54:45.859Z,10.83
2017-10-31T02:55:26.313Z,10.84
2017-10-31T02:56:06.666Z,10.84
2017-10-31T02:56:47.161Z,10.88
2017-10-31T02:57:27.587Z,10.86
2017-10-31T02:58:08.070Z,10.88
2017-10-31T02:58:48.501Z,10.84
2017-10-31T02:59:28.977Z,10.88
2017-10-31T03:00:09.365Z,10.88
2017-10-31T03:00:49.797Z,10.95
2017-10-31T03:01:30.148Z,10.93
2017-10-31T03:02:10.567Z,10.88
2017-10-31T03:02:50.967Z,10.91
2017-10-31T03:03:31.324Z,10.87
2017-10-31T03:04:11.852Z,10.93
2017-10-31T03:04:52.271Z,10.99
2017-10-31T03:05:32.726Z,10.95
2017-10-31T03:06:13.152Z,10.98
2017-10-31T03:06:53.550Z,11.01
2017-10-31T03:07:33.949Z,10.99
2017-10-31T03:08:14.299Z,11.03
2017-10-31T03:08:54.733Z,10.98
2017-10-31T03:09:35.279Z,11.11
2017-10-31T03:10:15.660Z,11.17
2017-10-31T03:10:56.242Z,11.21
2017-10-31T03:11:36.529Z,11.2
2017-10-31T03:12:16.916Z,11.16
2017-10-31T03:12:57.340Z,11.16
2017-10-31T03:13:37.756Z,11.2
2017-10-31T03:14:18.147Z,11.21
2017-10-31T03:14:58.567Z,11.17
2017-10-31T03:15:38.972Z,11.13
2017-10-31T03:16:19.352Z,11.2
2017-10-31T03:16:59.719Z,11.16
2017-10-31T03:17:40.174Z,11.23
2017-10-31T03:18:20.588Z,11.24
2017-10-31T03:19:01.049Z,11.26
2017-10-31T03:19:41.399Z,11.17
2017-10-31T03:20:21.847Z,11.23
2017-10-31T03:21:02.309Z,11.16
2017-10-31T03:21:42.677Z,11.21
2017-10-31T03:22:23.026Z,11.16
2017-10-31T03:23:03.590Z,11.16
2017-10-31T03:23:44.021Z,11.17
2017-10-31T03:24:24.374Z,11.17
2017-10-31T03:25:04.914Z,11.16
2017-10-31T03:25:45.254Z,11.23
2017-10-31T03:26:25.701Z,11.13
2017-10-31T03:27:06.210Z,11.2
2017-10-31T03:27:46.667Z,11.26
2017-10-31T03:28:27.063Z,11.26
2017-10-31T03:29:07.469Z,11.26
2017-10-31T03:29:47.882Z,11.33
2017-10-31T03:30:28.320Z,11.38
2017-10-31T03:31:08.724Z,11.28
2017-10-31T03:31:49.111Z,11.39
2017-10-31T03:32:29.501Z,11.41
2017-10-31T03:33:09.950Z,11.31
2017-10-31T03:33:50.486Z,11.44
2017-10-31T03:34:30.840Z,11.44
2017-10-31T03:35:11.303Z,11.48
2017-10-31T03:35:51.684Z,11.49
2017-10-31T03:36:32.162Z,11.57
2017-10-31T03:37:12.475Z,11.49
2017-10-31T03:37:52.916Z,11.6
2017-10-31T03:38:33.374Z,11.48
2017-10-31T03:39:13.794Z,11.54
2017-10-31T03:39:54.255Z,11.62
2017-10-31T03:40:34.623Z,11.54
2017-10-31T03:41:15.138Z,11.45
2017-10-31T03:41:55.503Z,11.51
2017-10-31T03:42:35.947Z,11.38
2017-10-31T03:43:16.464Z,11.31
2017-10-31T03:43:56.836Z,11.28
2017-10-31T03:44:37.250Z,11.28
2017-10-31T03:45:17.704Z,11.28
2017-10-31T03:45:58.069Z,11.21
2017-10-31T03:46:38.521Z,11.2
2017-10-31T03:47:18.908Z,11.19
2017-10-31T03:47:59.304Z,11.19
2017-10-31T03:48:39.739Z,11.2
2017-10-31T03:49:20.102Z,11.17
2017-10-31T03:50:00.641Z,11.23
2017-10-31T03:50:41.124Z,11.16
2017-10-31T03:51:21.478Z,11.09
2017-10-31T03:52:01.832Z,11.17
2017-10-31T03:52:42.233Z,11.11
2017-10-31T03:53:22.683Z,11.12
2017-10-31T03:54:03.117Z,11.12
2017-10-31T03:54:43.567Z,11.05
2017-10-31T03:55:23.909Z,11.06
2017-10-31T03:56:04.418Z,11.01
2017-10-31T03:56:44.748Z,11.01
2017-10-31T03:57:25.183Z,10.94
2017-10-31T03:58:05.657Z,11.01
2017-10-31T03:58:46.108Z,11.08
2017-10-31T03:59:26.528Z,11.05
2017-10-31T04:00:06.851Z,11.13
2017-10-31T04:00:47.246Z,11.05
2017-10-31T04:01:27.683Z,11.13
2017-10-31T04:40:46.014Z,10.57
2017-10-31T04:41:26.155Z,10.63
2017-10-31T04:42:06.573Z,10.65
2017-10-31T04:42:47.061Z,10.65
2017-10-31T04:43:27.711Z,10.66
2017-10-31T04:44:08.164Z,10.7
2017-10-31T04:44:48.501Z,10.8
2017-10-31T04:45:28.858Z,10.83
2017-10-31T04:46:09.306Z,11.03
2017-10-31T04:46:49.691Z,11.09
2017-10-31T04:47:30.094Z,10.93
2017-10-31T04:48:10.606Z,11.03
2017-10-31T04:48:51.001Z,10.87
2017-10-31T04:49:31.435Z,10.9
2017-10-31T04:50:11.827Z,10.91
2017-10-31T04:50:52.234Z,10.95
2017-10-31T04:51:32.649Z,10.93
2017-10-31T04:52:13.134Z,11.05
2017-10-31T04:52:53.463Z,11.13
2017-10-31T04:53:33.917Z,11.08
2017-10-31T04:54:14.372Z,11.26
2017-10-31T04:54:54.735Z,11.16
2017-10-31T04:55:35.122Z,11.2
2017-10-31T04:56:15.582Z,11.23
2017-10-31T04:56:56.019Z,11.28
2017-10-31T04:57:36.457Z,11.33
2017-10-31T04:58:17.542Z,11.23
2017-10-31T04:58:57.776Z,11.35
2017-10-31T04:59:38.245Z,11.35
2017-10-31T05:00:18.614Z,11.41
2017-10-31T05:00:59.147Z,11.38
2017-10-31T05:01:39.544Z,11.51
2017-10-31T05:02:19.962Z,11.56
2017-10-31T05:03:00.374Z,11.59
2017-10-31T05:03:40.796Z,11.62
2017-10-31T05:04:21.270Z,11.63
2017-10-31T05:05:01.615Z,11.69
2017-10-31T05:05:42.078Z,11.75
2017-10-31T05:06:22.444Z,11.75
2017-10-31T05:07:02.868Z,11.84
2017-10-31T05:07:43.380Z,11.87
2017-10-31T05:08:23.838Z,11.81
2017-10-31T05:09:04.197Z,11.74
2017-10-31T05:09:44.759Z,11.77
2017-10-31T05:10:25.140Z,11.74
2017-10-31T05:11:05.635Z,11.63
2017-10-31T05:11:46.140Z,11.7
2017-10-31T05:12:26.733Z,11.63
2017-10-31T05:13:07.108Z,11.64
2017-10-31T05:13:47.531Z,11.67
2017-10-31T05:14:28.016Z,11.77
2017-10-31T05:15:08.383Z,11.9
2017-10-31T05:15:48.835Z,11.97
2017-10-31T05:16:29.242Z,11.9
2017-10-31T05:17:09.672Z,12
2017-10-31T05:17:50.078Z,11.93
2017-10-31T05:18:30.480Z,11.9
2017-10-31T05:19:10.906Z,12.01
2017-10-31T05:19:51.344Z,11.96
2017-10-31T05:20:31.729Z,11.96
2017-10-31T05:21:12.113Z,12.01
2017-10-31T05:21:52.587Z,11.97
2017-10-31T05:22:32.949Z,11.97
2017-10-31T05:23:13.413Z,12.08
2017-10-31T05:23:53.878Z,12.08
2017-10-31T05:24:34.286Z,12.12
2017-10-31T05:25:14.663Z,12.07
2017-10-31T05:25:55.088Z,12.04
2017-10-31T05:26:35.482Z,12.11
2017-10-31T05:27:15.976Z,12.15
2017-10-31T05:27:56.435Z,12.13
2017-10-31T05:28:36.801Z,12.18
2017-10-31T05:29:17.246Z,12.15
2017-10-31T05:29:57.686Z,12.16
2017-10-31T05:30:38.137Z,12.15
2017-10-31T05:31:18.514Z,12.18
2017-10-31T05:31:58.969Z,12.13
2017-10-31T05:32:39.354Z,12.12
2017-10-31T05:33:19.818Z,12.15
2017-10-31T05:34:00.287Z,12.13
2017-10-31T05:34:40.645Z,12.15
2017-10-31T05:35:21.048Z,12.16
2017-10-31T05:36:01.432Z,12.13
2017-10-31T05:36:41.794Z,12.03
2017-10-31T05:37:22.290Z,12.08
2017-10-31T05:38:02.657Z,12.04
2017-10-31T05:38:43.099Z,12.07
2017-10-31T05:39:23.555Z,12.08
2017-10-31T05:40:03.961Z,12.08
2017-10-31T05:40:44.357Z,12.11
2017-10-31T05:41:24.782Z,12.11
2017-10-31T05:42:05.181Z,12.04
2017-10-31T05:42:45.700Z,11.96
2017-10-31T05:43:26.131Z,12.05
2017-10-31T05:44:06.526Z,11.93
2017-10-31T05:44:47.030Z,11.98
2017-10-31T05:45:27.386Z,12.05
2017-10-31T05:46:07.859Z,11.98
2017-10-31T05:46:48.250Z,11.94
2017-10-31T05:47:28.710Z,11.85
2017-10-31T05:48:09.107Z,11.82
2017-10-31T05:48:49.531Z,11.88
2017-10-31T05:49:30.047Z,11.77
2017-10-31T05:50:10.426Z,11.78
2017-10-31T05:50:50.851Z,11.78
2017-10-31T05:51:31.336Z,11.79
2017-10-31T05:52:11.804Z,11.62
2017-10-31T05:52:52.224Z,11.74
2017-10-31T05:53:32.766Z,11.64
2017-10-31T05:54:13.210Z,11.64
2017-10-31T05:54:53.593Z,11.62
2017-10-31T05:56:45.602Z,11.42
2017-10-31T05:57:37.059Z,11.33
2017-10-31T05:58:30.130Z,11.42
2017-10-31T05:59:24.123Z,11.31
2017-10-31T06:00:17.754Z,11.26
2017-10-31T06:01:09.971Z,11.28
2017-10-31T06:01:52.927Z,11.26
2017-10-31T06:02:33.275Z,11.23
2017-10-31T06:03:13.661Z,11.27
2017-10-31T06:03:54.013Z,11.23
2017-10-31T06:04:34.471Z,11.3
2017-10-31T06:05:15.022Z,11.19
2017-10-31T06:05:55.425Z,11.23
2017-10-31T06:06:35.883Z,11.2
2017-10-31T06:07:16.300Z,11.17
2017-10-31T06:07:56.605Z,11.19
2017-10-31T06:08:37.047Z,11.21
2017-10-31T06:09:17.470Z,11.19
2017-10-31T06:09:57.872Z,11.17
2017-10-31T06:10:38.268Z,11.2
2017-10-31T06:11:18.724Z,11.17
2017-10-31T06:11:59.095Z,11.28
2017-10-31T06:12:39.586Z,11.19
2017-10-31T06:13:19.932Z,11.19
2017-10-31T06:14:00.394Z,11.16
2017-10-31T06:14:40.760Z,11.16
2017-10-31T06:15:21.185Z,11.2
2017-10-31T06:16:01.625Z,11.26
2017-10-31T06:16:42.075Z,11.33
2017-10-31T06:17:22.518Z,11.28
2017-10-31T06:18:02.981Z,11.31
2017-10-31T06:18:43.274Z,11.3
2017-10-31T06:19:23.698Z,11.3
2017-10-31T06:20:04.053Z,11.35
2017-10-31T06:20:44.489Z,11.31
2017-10-31T06:21:24.930Z,11.21
2017-10-31T06:22:05.392Z,11.26
2017-10-31T06:22:45.811Z,11.28
2017-10-31T06:23:26.263Z,11.27
2017-10-31T06:24:06.629Z,11.2
2017-10-31T06:24:47.077Z,11.3
2017-10-31T06:25:27.504Z,11.3
2017-10-31T06:26:07.858Z,11.26
2017-10-31T06:26:48.330Z,11.3
2017-10-31T06:27:28.748Z,11.28
2017-10-31T06:28:09.128Z,11.24
2017-10-31T06:28:49.562Z,11.28
2017-10-31T06:29:30.022Z,11.28
2017-10-31T06:30:11.042Z,11.41
2017-10-31T06:30:52.482Z,11.36
2017-10-31T06:31:34.484Z,11.41
2017-10-31T06:32:14.931Z,11.36
2017-10-31T06:32:55.333Z,11.36
2017-10-31T06:33:35.717Z,11.36
2017-10-31T06:34:16.181Z,11.48
2017-10-31T06:34:56.631Z,11.51
2017-10-31T06:35:37.022Z,11.51
2017-10-31T06:36:17.447Z,11.56
2017-10-31T06:36:57.887Z,11.6
2017-10-31T06:37:38.247Z,11.6
2017-10-31T06:38:18.695Z,11.59
2017-10-31T06:38:59.057Z,11.59
2017-10-31T06:39:39.397Z,11.62
2017-10-31T06:40:19.783Z,11.69
2017-10-31T06:41:00.251Z,11.66
2017-10-31T06:41:40.604Z,11.62
2017-10-31T06:42:21.098Z,11.66
2017-10-31T06:43:01.542Z,11.66
2017-10-31T06:43:41.941Z,11.77
2017-10-31T06:44:22.371Z,11.75
2017-10-31T06:45:02.801Z,11.82
2017-10-31T06:45:43.229Z,11.81
2017-10-31T06:46:23.590Z,11.72
2017-10-31T06:47:03.989Z,11.77
2017-10-31T06:47:44.429Z,11.75
2017-10-31T06:48:25.010Z,11.78
2017-10-31T06:49:05.320Z,11.72
2017-10-31T06:49:45.705Z,11.67
2017-10-31T06:50:26.130Z,11.74
2017-10-31T06:51:06.560Z,11.77
2017-10-31T06:51:47.024Z,11.74
2017-10-31T06:52:27.440Z,11.74
2017-10-31T06:53:07.907Z,11.62
2017-10-31T06:53:48.300Z,11.66
2017-10-31T06:54:28.670Z,11.66
2017-10-31T06:55:09.097Z,11.64
2017-10-31T06:55:49.584Z,11.67
2017-10-31T06:56:29.987Z,11.62
2017-10-31T06:57:10.516Z,11.63
2017-10-31T06:57:50.901Z,11.63
2017-10-31T06:58:31.372Z,11.64
2017-10-31T06:59:11.789Z,11.7
2017-10-31T06:59:52.188Z,11.74
2017-10-31T07:00:32.688Z,11.64
2017-10-31T07:01:13.130Z,11.59
2017-10-31T07:01:53.551Z,11.69
2017-10-31T07:02:33.963Z,11.67
2017-10-31T07:03:14.871Z,11.64
2017-10-31T07:03:57.240Z,11.66
2017-10-31T07:04:37.746Z,11.62
2017-10-31T07:05:18.153Z,11.54
2017-10-31T07:05:58.580Z,11.59
2017-10-31T07:06:39.059Z,11.6
2017-10-31T07:07:19.458Z,11.64
2017-10-31T07:07:59.848Z,11.66
2017-10-31T07:08:40.317Z,11.62
2017-10-31T07:09:20.674Z,11.62
2017-10-31T07:10:01.165Z,11.57
2017-10-31T07:10:41.465Z,11.56
2017-10-31T07:11:22.007Z,11.6
2017-10-31T07:12:02.463Z,11.59
2017-10-31T07:12:42.921Z,11.56
2017-10-31T07:13:23.379Z,11.57
2017-10-31T07:14:03.803Z,11.59
2017-10-31T07:14:44.223Z,11.62
2017-10-31T07:15:24.608Z,11.63
2017-10-31T07:16:05.011Z,11.62
2017-10-31T07:16:45.391Z,11.64
2017-10-31T07:17:25.809Z,11.72
2017-10-31T07:18:06.234Z,11.66
2017-10-31T07:18:46.650Z,11.69
2017-10-31T07:19:27.152Z,11.67
2017-10-31T07:20:07.438Z,11.69
2017-10-31T07:20:47.968Z,11.7
2017-10-31T07:21:28.407Z,11.72
2017-10-31T07:22:08.778Z,11.78
2017-10-31T07:22:49.277Z,11.81
2017-10-31T07:23:29.659Z,11.84
2017-10-31T07:24:10.189Z,11.88
2017-10-31T07:24:50.538Z,11.88
2017-10-31T07:25:30.874Z,11.88
2017-10-31T07:26:11.432Z,11.94
2017-10-31T07:26:51.730Z,11.96
2017-10-31T07:27:32.161Z,11.97
2017-10-31T07:28:12.673Z,11.96
2017-10-31T07:28:53.077Z,11.88
2017-10-31T07:29:33.404Z,11.88
2017-10-31T07:30:13.851Z,11.93
2017-10-31T07:30:54.284Z,11.93
2017-10-31T07:31:34.807Z,11.82
2017-10-31T07:32:15.240Z,11.87
2017-10-31T07:32:55.617Z,11.93
2017-10-31T07:33:36.022Z,11.84
2017-10-31T07:34:16.443Z,11.84
2017-10-31T07:34:57.037Z,11.93
2017-10-31T07:35:37.482Z,11.88
2017-10-31T07:36:18.004Z,11.75
2017-10-31T07:36:58.421Z,11.74
2017-10-31T07:37:38.928Z,11.78
2017-10-31T07:38:19.364Z,11.78
2017-10-31T07:38:59.669Z,11.75
2017-10-31T07:39:40.204Z,11.81
2017-10-31T07:40:20.600Z,11.84
2017-10-31T07:41:00.965Z,11.77
2017-10-31T07:41:41.371Z,11.79
2017-10-31T07:42:21.964Z,11.87
2017-10-31T07:43:02.345Z,11.84
2017-10-31T07:43:42.735Z,11.88
2017-10-31T07:44:23.243Z,11.96
2017-10-31T07:45:03.670Z,11.97
2017-10-31T07:45:44.100Z,11.87
2017-10-31T07:46:24.498Z,11.85
2017-10-31T07:47:04.908Z,12
2017-10-31T07:47:45.282Z,11.9
2017-10-31T07:48:25.852Z,12
2017-10-31T07:49:06.378Z,12.07
2017-10-31T07:49:46.877Z,12.11
2017-10-31T07:50:27.171Z,12.08
2017-10-31T07:51:07.597Z,12.12
2017-10-31T07:51:48.051Z,12.12
2017-10-31T07:52:28.512Z,12.37
2017-10-31T07:53:09.014Z,12.37
2017-10-31T07:53:49.393Z,12.4
2017-10-31T07:54:29.786Z,12.51
2017-10-31T07:55:10.181Z,12.43
2017-10-31T07:55:50.583Z,12.55
2017-10-31T07:56:31.078Z,12.55
2017-10-31T07:57:11.489Z,12.58
2017-10-31T07:57:51.912Z,12.58
2017-10-31T07:58:32.324Z,12.66
2017-10-31T07:59:12.736Z,12.8
2017-10-31T07:59:53.211Z,12.8
2017-10-31T08:00:33.570Z,13.01
2017-10-31T08:01:14.016Z,13.13
2017-10-31T08:01:54.534Z,13.31
2017-10-31T08:02:34.908Z,13.38
2017-10-31T08:03:15.340Z,13.61
2017-10-31T08:03:55.828Z,13.55
2017-10-31T08:04:36.184Z,13.72
2017-10-31T08:05:16.772Z,13.83
2017-10-31T08:05:57.274Z,13.91
2017-10-31T08:06:37.747Z,13.91
2017-10-31T08:07:18.132Z,13.93
2017-10-31T08:07:58.534Z,14.01
2017-10-31T08:08:38.927Z,14.13
2017-10-31T08:09:19.322Z,14.13
2017-10-31T08:09:59.765Z,14.08
2017-10-31T08:10:40.328Z,14.06
2017-10-31T08:11:20.706Z,14.02
2017-10-31T08:12:01.300Z,14.05
2017-10-31T08:12:41.781Z,14.06
2017-10-31T08:13:22.151Z,14.05
2017-10-31T08:14:02.556Z,14.02
2017-10-31T08:14:42.967Z,14.08
2017-10-31T08:15:23.450Z,14.02
2017-10-31T08:16:03.801Z,14.12
2017-10-31T08:16:44.315Z,14.12
2017-10-31T08:17:24.737Z,14.12
2017-10-31T08:18:05.154Z,14.09
2017-10-31T08:18:45.584Z,14.12
2017-10-31T08:19:26.003Z,14.11
2017-10-31T08:20:06.477Z,14.13
2017-10-31T08:20:46.819Z,14.13
2017-10-31T08:21:27.333Z,14.24
2017-10-31T08:22:07.824Z,14.31
2017-10-31T08:22:48.272Z,14.24
2017-10-31T08:23:28.735Z,14.3
2017-10-31T08:24:09.185Z,14.39
2017-10-31T08:24:49.626Z,14.3
2017-10-31T08:25:30.079Z,14.35
2017-10-31T08:26:10.488Z,14.27
2017-10-31T08:26:50.855Z,14.26
2017-10-31T08:27:31.263Z,14.35
2017-10-31T08:28:11.652Z,14.27
2017-10-31T08:28:52.033Z,14.3
2017-10-31T08:29:32.522Z,14.45
2017-10-31T08:30:12.894Z,14.54
2017-10-31T08:30:53.319Z,14.6
2017-10-31T08:31:33.824Z,14.63
2017-10-31T08:32:14.274Z,14.64
2017-10-31T08:32:54.651Z,14.54
2017-10-31T08:33:35.205Z,14.54
2017-10-31T08:34:15.685Z,14.52
2017-10-31T08:34:56.307Z,14.69
2017-10-31T08:35:36.800Z,14.67
2017-10-31T08:36:17.144Z,14.75
2017-10-31T08:36:57.690Z,14.86
2017-10-31T08:37:38.000Z,15.04
2017-10-31T08:38:18.569Z,15.25
2017-10-31T08:38:58.933Z,15.48
2017-10-31T08:39:39.341Z,15.53
2017-10-31T08:40:19.824Z,15.71
2017-10-31T08:41:00.176Z,15.84
2017-10-31T08:41:40.681Z,16.01
2017-10-31T08:42:21.177Z,16.11
2017-10-31T08:43:01.503Z,16.32
2017-10-31T08:43:42.092Z,16.47
2017-10-31T08:44:22.436Z,16.6
2017-10-31T08:45:02.857Z,16.66
2017-10-31T08:45:43.535Z,16.81
2017-10-31T08:46:24.026Z,16.84
2017-10-31T08:47:04.578Z,16.82
2017-10-31T08:47:45.072Z,16.85
2017-10-31T08:48:25.557Z,16.84
2017-10-31T08:49:05.945Z,16.75
2017-10-31T08:49:46.335Z,16.59
2017-10-31T08:50:26.732Z,16.65
2017-10-31T08:51:07.178Z,16.55
2017-10-31T08:51:47.649Z,16.54
2017-10-31T08:52:28.054Z,16.44
2017-10-31T08:53:08.678Z,16.42
2017-10-31T08:53:49.120Z,16.33
2017-10-31T08:54:29.554Z,16.29
2017-10-31T08:55:10.013Z,16.22
2017-10-31T08:55:50.402Z,16.17
2017-10-31T08:56:30.890Z,16.16
2017-10-31T08:57:11.433Z,16.08
2017-10-31T08:57:51.840Z,15.95
2017-10-31T08:58:32.206Z,16.01
2017-10-31T08:59:12.672Z,15.91
2017-10-31T08:59:53.094Z,15.84
2017-10-31T09:00:33.424Z,15.86
2017-10-31T09:01:13.858Z,15.81
2017-10-31T09:01:54.297Z,15.84
2017-10-31T09:02:34.679Z,15.89
2017-10-31T09:03:15.215Z,15.59
2017-10-31T09:03:55.708Z,15.53
2017-10-31T09:04:36.231Z,15.43
2017-10-31T09:05:16.637Z,15.37
2017-10-31T09:05:57.058Z,15.38
2017-10-31T09:06:37.427Z,15.38
2017-10-31T09:07:17.988Z,15.43
2017-10-31T09:07:58.330Z,15.38
2017-10-31T09:08:38.767Z,15.44
2017-10-31T09:09:19.263Z,15.56
2017-10-31T09:09:59.722Z,15.52
2017-10-31T09:10:40.110Z,15.6
2017-10-31T09:11:20.525Z,15.51
2017-10-31T09:12:00.950Z,15.44
2017-10-31T09:12:41.363Z,15.44
2017-10-31T09:13:21.767Z,15.41
2017-10-31T09:14:02.294Z,15.41
2017-10-31T09:14:42.863Z,15.41
2017-10-31T09:15:23.322Z,15.37
2017-10-31T09:16:03.838Z,15.38
2017-10-31T09:16:44.182Z,15.2
2017-10-31T09:17:24.652Z,15.19
2017-10-31T09:18:05.110Z,15.19
2017-10-31T09:18:45.636Z,15.15
2017-10-31T09:19:26.095Z,15.22
2017-10-31T09:20:06.469Z,15.04
2017-10-31T09:20:46.951Z,14.95
2017-10-31T09:21:27.643Z,15.03
2017-10-31T09:22:08.041Z,15.05
2017-10-31T09:22:48.571Z,15.13
2017-10-31T09:23:29.050Z,15.12
2017-10-31T09:24:10.504Z,15.23
2017-10-31T09:24:50.906Z,15.2
2017-10-31T09:25:31.303Z,15.2
2017-10-31T09:26:11.736Z,15.22
2017-10-31T09:26:52.311Z,15.11
2017-10-31T09:27:32.633Z,15.09
2017-10-31T09:28:13.048Z,15.16
2017-10-31T09:28:53.545Z,15.01
2017-10-31T09:29:34.287Z,15.16
2017-10-31T09:30:14.454Z,15.12
2017-10-31T09:30:54.818Z,15.12
2017-10-31T09:31:35.383Z,15.16
2017-10-31T09:32:15.838Z,15.12
2017-10-31T09:32:56.199Z,15.13
2017-10-31T09:33:36.700Z,15.18
2017-10-31T09:34:17.113Z,15.2